Stations météo

réclame
Mon MeteoGroup
Palacios de la Sierra, Espagne (8149): Température de l'air & dewpoint: 14.09.2020 18:00:00 - 20.09.2020 18:00:00 (CEST)Palacios de la Sierra, Espagne (8149): Vitesse du vent & gusts: 14.09.2020 18:00:00 - 20.09.2020 18:00:00 (CEST)Palacios de la Sierra, Espagne (8149): Direction du vent: 14.09.2020 18:00:00 - 20.09.2020 18:00:00 (CEST)Palacios de la Sierra, Espagne (8149): visibility: 14.09.2020 18:00:00 - 20.09.2020 18:00:00 (CEST)Palacios de la Sierra, Espagne (8149): Ensoleillement: 14.09.2020 18:00:00 - 20.09.2020 18:00:00 (CEST)Palacios de la Sierra, Espagne (8149): Quantités de précipitations: 14.09.2020 18:00:00 - 20.09.2020 18:00:00 (CEST)
Date & Time tt [°C] td [°C] ff [km/h] ff [knt] fx [km/h] fx [knt] dd vv [km] sd [min] rr [mm]
20.09.2020 18:00:00 - - - - - - - - - -
20.09.2020 17:00:00 - - - - - - - - - -
20.09.2020 16:00:00 - - - - - - - - - -
20.09.2020 15:00:00 15,7 13,2 8 5 24 13 W 6 2 0,2
20.09.2020 14:00:00 15,3 12,2 9 5 26 14 SW 20 4 -
20.09.2020 13:00:00 15,4 12,8 11 6 23 12 WSW 14 10 0,6
20.09.2020 12:00:00 - - - - - - - - - -
20.09.2020 11:00:00 - - - - - - - - - -
20.09.2020 10:00:00 - - - - - - - - - -
20.09.2020 09:00:00 12,3 11,2 4 2 8 5 E 20 0 1,8
20.09.2020 08:00:00 12,2 11,0 4 2 7 4 S 7 0 -
20.09.2020 07:00:00 12,3 11,0 2 1 5 3 SSE 2,7 0 0,6
20.09.2020 06:00:00 12,4 11,0 2 1 6 3 ESE 3,2 0 0,0
20.09.2020 05:00:00 - - - - - - - - - -
20.09.2020 04:00:00 - - - - - - - - - -
20.09.2020 03:00:00 12,4 10,2 10 5 23 12 WSW 20 0 0,0
20.09.2020 02:00:00 12,6 10,5 15 8 31 17 W 20 0 -
20.09.2020 01:00:00 12,6 10,9 9 5 27 15 W 20 0 0,0
20.09.2020 00:00:00 - - - - - - - - - -
19.09.2020 23:00:00 - - - - - - - - - -
19.09.2020 22:00:00 12,6 10,5 9 5 14 7 WSW 20 0 1,4
19.09.2020 21:00:00 12,9 11,0 3 2 36 19 WNW 14 0 1,6
19.09.2020 20:00:00 14,5 10,5 11 6 20 11 W 20 0 -
19.09.2020 19:00:00 14,9 11,1 9 5 27 15 W 20 0 0,0
19.09.2020 18:00:00 14,9 11,1 13 7 27 15 W 20 14 0,0
19.09.2020 17:00:00 14,9 11,3 15 8 34 18 W 20 16 0,0
19.09.2020 16:00:00 - - - - - - - - - -
19.09.2020 15:00:00 13,6 11,8 11 6 39 21 WNW 20 0 0,8
19.09.2020 14:00:00 13,7 11,6 18 10 50 27 WSW 20 1 -
19.09.2020 13:00:00 - - - - - - - - - -
19.09.2020 12:00:00 13,6 11,0 11 6 33 18 WSW 20 0 0,4
19.09.2020 11:00:00 13,0 11,2 3 2 17 9 SE 20 0 1,2
19.09.2020 10:00:00 12,5 10,8 7 4 16 8 ESE 20 0 0,6
19.09.2020 09:00:00 11,9 10,2 8 4 16 8 ESE 18 0 0,6
19.09.2020 08:00:00 11,6 9,7 1 1 12 6 S 20 0 -
19.09.2020 07:00:00 11,7 9,8 5 3 10 6 SSE 20 0 0,0
19.09.2020 06:00:00 11,6 10,0 7 4 10 5 ESE 20 0 0,2
19.09.2020 05:00:00 - - - - - - - - - -
19.09.2020 04:00:00 - - - - - - - - - -
19.09.2020 03:00:00 12,1 10,5 2 1 8 4 SSW 8 0 1,4
19.09.2020 02:00:00 12,1 10,0 3 2 17 9 SSE 20 0 -
19.09.2020 01:00:00 12,5 9,6 4 2 11 6 SSE 20 0 0,0
19.09.2020 00:00:00 12,7 8,8 8 5 18 10 ESE 20 0 0,0
18.09.2020 23:00:00 - - - - - - - - - -
18.09.2020 22:00:00 - - - - - - - - - -
18.09.2020 21:00:00 15,4 9,6 9 5 32 17 S 20 0 0,0
18.09.2020 20:00:00 17,1 9,6 7 4 27 15 SE 20 0 -
18.09.2020 19:00:00 - - - - - - - - - -
18.09.2020 18:00:00 19,3 8,9 11 6 31 17 SE 20 48 0,0
18.09.2020 17:00:00 20,6 9,2 12 6 37 20 SE 20 39 0,0
18.09.2020 16:00:00 19,3 10,3 13 7 32 17 SE 20 6 0,0
18.09.2020 15:00:00 19,0 10,0 11 6 37 20 SE 20 0 0,0
18.09.2020 14:00:00 19,2 9,9 13 7 35 19 SSE 20 44 -
18.09.2020 13:00:00 - - - - - - - - - -
18.09.2020 12:00:00 13,8 9,8 16 9 33 18 WNW 20 9 0,0
18.09.2020 11:00:00 15,2 11,6 14 7 32 17 SE 20 5 0,0
18.09.2020 10:00:00 13,1 11,0 15 8 19 11 ESE 20 0 0,0
18.09.2020 09:00:00 12,5 10,4 9 5 29 15 ESE 20 0 0,0
18.09.2020 08:00:00 13,3 9,6 13 7 39 21 W 20 0 -
18.09.2020 07:00:00 15,5 12,8 13 7 30 16 ESE 20 0 0,0
18.09.2020 06:00:00 15,1 13,2 13 7 32 17 ESE 20 0 0,4
18.09.2020 05:00:00 14,0 12,7 11 6 24 13 E 20 0 11,6
18.09.2020 04:00:00 - - - - - - - - - -
18.09.2020 03:00:00 14,2 12,5 9 5 18 10 SE 7 0 0,8
18.09.2020 02:00:00 14,0 12,2 4 2 24 13 SE 6 0 -
18.09.2020 01:00:00 - - - - - - - - - -
18.09.2020 00:00:00 16,0 13,2 4 2 44 24 ESE 19 0 4,2
17.09.2020 23:00:00 19,5 11,6 11 6 25 13 ESE 20 0 0,0
17.09.2020 22:00:00 - - - - - - - - - -
17.09.2020 21:00:00 20,3 11,0 10 5 28 15 ESE 20 0 0,0
17.09.2020 20:00:00 21,7 10,5 15 8 32 18 SE 20 19 -
17.09.2020 19:00:00 - - - - - - - - - -
17.09.2020 18:00:00 - - - - - - - - - -
17.09.2020 17:00:00 24,8 9,6 10 5 36 19 SSE 20 41 0,0
17.09.2020 16:00:00 - - - - - - - - - -
17.09.2020 15:00:00 23,8 9,8 14 7 30 16 SE 20 27 0,0
17.09.2020 14:00:00 22,7 10,5 9 5 24 13 SE 20 32 -
17.09.2020 13:00:00 22,4 10,9 13 7 25 14 SE 20 53 0,0
17.09.2020 12:00:00 20,3 11,2 10 6 25 14 SE 20 1 0,0
17.09.2020 11:00:00 20,0 10,6 10 6 27 15 SE 20 47 0,0
17.09.2020 10:00:00 19,4 10,6 8 5 22 12 SE 20 47 0,0
17.09.2020 09:00:00 17,7 10,5 9 5 22 12 E 20 2 0,0
17.09.2020 08:00:00 17,3 10,2 9 5 24 13 ESE 20 0 -
17.09.2020 07:00:00 16,2 11,1 8 4 13 7 ESE 20 0 0,0
17.09.2020 06:00:00 15,1 11,4 2 1 11 6 ESE 20 0 0,0
17.09.2020 05:00:00 15,5 11,9 2 1 10 5 SE 20 0 0,0
17.09.2020 04:00:00 16,2 12,1 8 4 18 10 E 20 0 0,0
17.09.2020 03:00:00 17,2 11,4 7 4 28 15 SSE 20 0 0,0
17.09.2020 02:00:00 18,5 11,8 14 8 32 18 E 15 0 -
17.09.2020 01:00:00 18,1 9,9 2 1 6 3 SSE 20 0 0,0
17.09.2020 00:00:00 19,3 9,4 3 2 10 5 E 20 0 0,0
16.09.2020 23:00:00 20,5 9,7 6 3 17 9 E 20 0 0,0
16.09.2020 22:00:00 21,3 9,6 9 5 20 11 ESE 20 0 0,0
16.09.2020 21:00:00 22,4 9,2 6 4 19 10 ESE 20 0 0,0
16.09.2020 20:00:00 23,9 7,1 8 4 13 7 ESE 20 9 -
16.09.2020 19:00:00 25,5 8,0 5 3 14 8 S 20 5 0,0
16.09.2020 18:00:00 26,7 5,6 6 3 16 8 SSE 20 28 0,0
16.09.2020 17:00:00 27,3 3,8 6 3 24 13 S 20 52 0,0
16.09.2020 16:00:00 27,9 4,1 8 5 24 13 SSE 20 47 0,0
16.09.2020 15:00:00 26,9 6,8 4 2 19 10 ENE 20 44 0,0
16.09.2020 14:00:00 26,0 7,6 4 2 20 11 S 20 43 -
16.09.2020 13:00:00 25,9 7,0 8 5 31 17 SSE 20 47 0,0
16.09.2020 12:00:00 24,2 9,8 3 1 8 4 NNE 20 60 0,0
16.09.2020 11:00:00 20,5 11,1 2 1 5 3 E 20 60 0,0
16.09.2020 10:00:00 - - - - - - - - - -
16.09.2020 09:00:00 - - - - - - - - - -
16.09.2020 08:00:00 10,4 8,5 12 6 16 9 S 17 0 -
16.09.2020 07:00:00 10,6 8,7 9 5 19 10 S 17 0 0,0
16.09.2020 06:00:00 11,1 9,2 5 3 12 6 SE 20 0 0,0
16.09.2020 05:00:00 11,0 9,3 6 3 16 9 SSE 20 0 0,0
16.09.2020 04:00:00 11,4 9,4 7 4 14 8 S 20 0 0,0
16.09.2020 03:00:00 11,7 9,4 8 5 16 8 S 20 0 0,0
16.09.2020 02:00:00 12,0 9,7 6 3 17 9 SSE 20 0 -
16.09.2020 01:00:00 - - - - - - - - - -
16.09.2020 00:00:00 13,6 10,5 5 3 13 7 SSE 20 0 0,0
15.09.2020 23:00:00 15,1 10,9 6 3 11 6 S 20 0 0,0
15.09.2020 22:00:00 - - - - - - - - - -
15.09.2020 21:00:00 18,6 11,2 3 2 12 7 SSE 20 0 0,0
15.09.2020 20:00:00 21,6 10,2 10 5 21 11 WSW 20 27 -
15.09.2020 19:00:00 - - - - - - - - - -
15.09.2020 18:00:00 24,8 7,4 3 2 19 10 WNW 20 30 0,0
15.09.2020 17:00:00 26,6 7,6 8 4 23 12 W 20 55 0,0
15.09.2020 16:00:00 25,9 8,4 8 5 22 12 WSW 20 32 0,0
15.09.2020 15:00:00 25,0 8,9 8 5 24 13 SSW 20 52 0,0
15.09.2020 14:00:00 24,3 11,2 6 3 22 12 SSE 20 52 -
15.09.2020 13:00:00 23,2 11,9 6 4 16 9 S 20 60 0,0
15.09.2020 12:00:00 20,6 12,0 9 5 27 15 SE 20 60 0,0
15.09.2020 11:00:00 18,3 12,3 14 8 29 16 E 20 60 0,0
15.09.2020 10:00:00 16,4 12,3 13 7 22 12 ESE 20 59 0,0
15.09.2020 09:00:00 14,3 11,2 6 4 28 15 SSE 20 5 1,4
15.09.2020 08:00:00 13,8 11,7 4 2 19 10 NE 20 0 -
15.09.2020 07:00:00 13,8 12,0 8 5 16 9 E 20 0 0,4
15.09.2020 06:00:00 - - - - - - - - - -
15.09.2020 05:00:00 - - - - - - - - - -
15.09.2020 04:00:00 - - - - - - - - - -
15.09.2020 03:00:00 16,1 8,8 6 4 27 15 SSW 20 0 0,0
15.09.2020 02:00:00 18,1 8,4 18 10 44 24 WNW 20 0 -
15.09.2020 01:00:00 17,8 7,3 5 3 8 4 ESE 20 0 0,0
15.09.2020 00:00:00 18,9 7,3 4 2 16 8 E 20 0 0,0
14.09.2020 23:00:00 19,2 7,6 9 5 15 8 E 20 0 0,0
14.09.2020 22:00:00 - - - - - - - - - -
14.09.2020 21:00:00 21,0 6,8 5 3 19 10 SE 20 0 0,0
14.09.2020 20:00:00 23,3 5,6 11 6 29 15 ESE 20 27 -
14.09.2020 19:00:00 24,3 5,6 - - - - - 20 11 0,0
14.09.2020 18:00:00 25,7 5,8 14 8 36 19 SE 20 46 0,0

tt = Température de l'air
td = dewpoint
ff = Vitesse du vent
fx = gusts
dd = Direction du vent
vv = visibility
sd = Ensoleillement
rr = Quantités de précipitations

stations d'obs. à proximité